createdAt,value
2022-08-19T00:00:15.154Z,10.63
2022-08-19T00:03:04.370Z,11.30
2022-08-19T00:05:32.675Z,11.60
2022-08-19T00:08:00.426Z,11.55
2022-08-19T00:10:28.167Z,11.65
2022-08-19T00:12:55.708Z,12.18
2022-08-19T00:15:24.092Z,12.32
2022-08-19T00:17:51.920Z,11.18
2022-08-19T00:20:22.917Z,11.23
2022-08-19T00:22:51.439Z,11.98
2022-08-19T00:25:30.085Z,11.27
2022-08-19T00:28:00.487Z,11.80
2022-08-19T00:30:30.762Z,12.15
2022-08-19T00:32:59.929Z,12.55
2022-08-19T00:35:28.742Z,12.70
2022-08-19T00:37:57.246Z,12.45
2022-08-19T00:40:26.081Z,12.60
2022-08-19T00:42:54.916Z,12.77
2022-08-19T00:45:29.179Z,12.23
2022-08-19T00:47:57.028Z,13.05
2022-08-19T00:50:24.972Z,13.35
2022-08-19T00:52:53.577Z,13.75
2022-08-19T00:55:29.068Z,13.23
2022-08-19T00:58:09.141Z,12.43
2022-08-19T01:00:38.338Z,12.38
2022-08-19T01:03:16.055Z,11.97
2022-08-19T01:05:49.993Z,12.43
2022-08-19T01:08:20.447Z,10.55
2022-08-19T01:10:56.210Z,9.57
2022-08-19T01:13:49.529Z,10.52
2022-08-19T01:16:22.413Z,11.45
2022-08-19T01:18:50.739Z,11.95
2022-08-19T01:21:41.514Z,10.30
2022-08-19T01:24:09.171Z,11.30
2022-08-19T01:26:44.752Z,10.52
2022-08-19T01:29:15.034Z,10.23
2022-08-19T01:31:43.119Z,10.68
2022-08-19T01:34:11.509Z,10.07
2022-08-19T01:36:48.533Z,10.35
2022-08-19T01:39:22.910Z,10.77
2022-08-19T01:41:56.534Z,10.50
2022-08-19T01:44:25.331Z,10.77
2022-08-19T01:46:53.674Z,10.65
2022-08-19T01:49:26.244Z,10.77
2022-08-19T01:51:55.846Z,10.25
2022-08-19T01:54:27.486Z,10.68
2022-08-19T01:57:08.033Z,10.45
2022-08-19T01:59:37.563Z,10.85
2022-08-19T02:02:09.501Z,10.50
2022-08-19T02:04:39.116Z,10.75
2022-08-19T02:09:37.043Z,10.98
2022-08-19T02:12:07.672Z,10.70
2022-08-19T02:14:37.588Z,10.98
2022-08-19T02:19:33.730Z,10.70
2022-08-19T02:22:02.063Z,10.40
2022-08-19T02:24:29.820Z,10.18
2022-08-19T02:26:59.753Z,10.45
2022-08-19T02:29:27.603Z,11.45
2022-08-19T02:31:55.165Z,10.18
2022-08-19T02:34:23.055Z,11.23
2022-08-19T02:36:51.931Z,10.40
2022-08-19T02:39:20.556Z,10.25
2022-08-19T02:41:48.074Z,9.60
2022-08-19T02:44:30.663Z,10.00
2022-08-19T02:46:59.282Z,10.68
2022-08-19T02:49:27.158Z,10.63
2022-08-19T02:51:55.414Z,10.15
2022-08-19T02:54:23.177Z,10.60
2022-08-19T02:56:50.882Z,10.60
2022-08-19T02:59:18.440Z,10.25
2022-08-19T03:01:49.547Z,9.63
2022-08-19T03:04:17.983Z,10.55
2022-08-19T03:06:48.658Z,11.30
2022-08-19T03:09:18.197Z,10.35
2022-08-19T03:14:16.072Z,10.38
2022-08-19T03:16:48.548Z,11.45
2022-08-19T03:19:22.248Z,10.75
2022-08-19T03:21:51.173Z,11.40
2022-08-19T03:24:20.070Z,10.97
2022-08-19T03:26:53.073Z,10.73
2022-08-19T03:29:29.475Z,10.65
2022-08-19T03:32:05.717Z,11.07
2022-08-19T03:34:38.385Z,10.98
2022-08-19T03:37:11.499Z,11.00
2022-08-19T03:39:41.479Z,10.30
2022-08-19T03:44:59.529Z,11.57
2022-08-19T03:47:27.123Z,10.45
2022-08-19T03:49:54.831Z,10.45
2022-08-19T03:52:22.570Z,11.30
2022-08-19T03:54:50.267Z,11.50
2022-08-19T03:57:17.799Z,11.20
2022-08-19T03:59:45.859Z,11.80
2022-08-19T04:02:14.325Z,11.63
2022-08-19T04:04:44.669Z,11.77
2022-08-19T04:07:17.206Z,12.05
2022-08-19T04:09:45.199Z,11.95
2022-08-19T04:12:12.839Z,13.63
2022-08-19T04:14:40.662Z,13.45
2022-08-19T04:17:08.555Z,12.65
2022-08-19T04:19:38.194Z,12.43
2022-08-19T04:22:07.841Z,12.18
2022-08-19T04:24:36.633Z,12.15
2022-08-19T04:27:07.092Z,12.38
2022-08-19T04:29:35.302Z,12.93
2022-08-19T04:32:08.789Z,14.13
2022-08-19T04:35:02.241Z,13.65
2022-08-19T04:37:29.532Z,12.52
2022-08-19T04:40:26.645Z,12.38
2022-08-19T04:42:54.967Z,11.98
2022-08-19T04:45:23.748Z,11.90
2022-08-19T04:48:27.356Z,13.20
2022-08-19T04:50:47.228Z,13.02
2022-08-19T04:53:14.828Z,12.85
2022-08-19T04:55:43.630Z,11.98
2022-08-19T04:58:11.501Z,12.45
2022-08-19T05:00:41.198Z,13.30
2022-08-19T05:05:44.806Z,12.25
2022-08-19T05:08:30.786Z,12.18
2022-08-19T05:10:59.741Z,12.60
2022-08-19T05:13:28.336Z,13.40
2022-08-19T05:15:59.135Z,13.25
2022-08-19T05:18:46.646Z,13.52
2022-08-19T05:21:36.949Z,15.30
2022-08-19T05:24:09.605Z,14.45
2022-08-19T05:26:44.222Z,13.90
2022-08-19T05:29:12.208Z,15.18
2022-08-19T05:31:41.715Z,15.55
2022-08-19T05:34:20.151Z,14.73
2022-08-19T05:36:49.696Z,14.90
2022-08-19T05:39:21.558Z,15.50
2022-08-19T05:42:00.357Z,14.75
2022-08-19T05:44:32.459Z,14.82
2022-08-19T05:47:03.199Z,13.52
2022-08-19T05:49:33.054Z,14.77
2022-08-19T05:52:08.679Z,14.02
2022-08-19T05:54:41.225Z,12.73
2022-08-19T05:57:13.312Z,14.05
2022-08-19T05:59:41.229Z,12.93
2022-08-19T06:02:09.065Z,11.77
2022-08-19T06:04:36.908Z,13.63
2022-08-19T06:07:12.719Z,12.40
2022-08-19T06:09:43.738Z,12.18
2022-08-19T06:12:32.712Z,12.75
2022-08-19T06:15:11.324Z,12.15
2022-08-19T06:17:39.387Z,12.45
2022-08-19T06:20:13.041Z,12.30
2022-08-19T06:22:44.453Z,11.63
2022-08-19T06:25:15.283Z,12.20
2022-08-19T06:28:14.517Z,11.57
2022-08-19T06:30:31.936Z,11.05
2022-08-19T06:32:59.867Z,10.98
2022-08-19T06:35:27.990Z,11.35
2022-08-19T06:37:56.761Z,10.20
2022-08-19T06:40:24.543Z,10.80
2022-08-19T06:42:54.155Z,11.30
2022-08-19T06:45:34.472Z,10.35
2022-08-19T06:48:03.348Z,10.00
2022-08-19T06:50:31.398Z,11.10
2022-08-19T06:53:03.605Z,10.93
2022-08-19T06:55:33.384Z,10.40
2022-08-19T06:58:04.881Z,10.30
2022-08-19T07:00:33.364Z,9.65
2022-08-19T07:03:05.970Z,9.93
2022-08-19T07:05:45.773Z,9.75
2022-08-19T07:08:15.478Z,10.45
2022-08-19T07:10:47.740Z,10.02
2022-08-19T07:13:16.049Z,9.20
2022-08-19T07:15:44.171Z,9.70
2022-08-19T07:18:12.148Z,9.27
2022-08-19T07:20:42.034Z,9.60
2022-08-19T07:23:16.008Z,8.50
2022-08-19T07:25:44.988Z,9.65
2022-08-19T07:28:23.985Z,8.80
2022-08-19T07:30:53.705Z,8.40
2022-08-19T07:33:21.850Z,8.80
2022-08-19T07:35:50.863Z,8.57
2022-08-19T07:38:19.252Z,8.85
2022-08-19T07:40:47.319Z,12.20
2022-08-19T07:43:17.766Z,7.88
2022-08-19T07:45:46.662Z,7.88
2022-08-19T07:48:15.506Z,8.00
2022-08-19T07:50:43.779Z,9.95
2022-08-19T07:53:13.332Z,8.20
2022-08-19T07:55:43.797Z,7.60
2022-08-19T07:58:16.485Z,8.18
2022-08-19T08:00:47.142Z,10.77
2022-08-19T08:03:18.425Z,7.38
2022-08-19T08:06:05.922Z,7.93
2022-08-19T08:08:36.722Z,7.07
2022-08-19T08:11:07.763Z,7.07
2022-08-19T08:13:36.430Z,9.10
2022-08-19T08:16:10.186Z,6.65
2022-08-19T08:18:43.470Z,7.00
2022-08-19T08:21:18.850Z,6.95
2022-08-19T08:23:46.754Z,6.85
2022-08-19T08:26:16.112Z,6.78
2022-08-19T08:28:47.765Z,6.93
2022-08-19T08:31:15.956Z,6.47
2022-08-19T08:33:44.473Z,6.28
2022-08-19T08:36:17.396Z,6.25
2022-08-19T08:38:46.919Z,6.28
2022-08-19T08:41:59.317Z,7.03
2022-08-19T08:44:44.306Z,6.90
2022-08-19T08:47:20.398Z,5.95
2022-08-19T08:50:20.827Z,6.00
2022-08-19T08:52:57.026Z,5.72
2022-08-19T08:55:37.068Z,5.60
2022-08-19T08:58:34.050Z,5.97
2022-08-19T09:01:01.769Z,5.90
2022-08-19T09:03:31.435Z,5.82
2022-08-19T09:06:12.012Z,5.47
2022-08-19T09:08:58.989Z,5.75
2022-08-19T09:11:51.200Z,5.30
2022-08-19T09:14:49.267Z,20.55
2022-08-19T09:17:17.552Z,5.88
2022-08-19T09:19:58.052Z,5.80
2022-08-19T09:22:27.920Z,5.70
2022-08-19T09:24:57.313Z,5.38
2022-08-19T09:27:43.125Z,7.00
2022-08-19T09:30:19.363Z,5.25
2022-08-19T09:32:47.285Z,5.22
2022-08-19T09:35:24.974Z,5.65
2022-08-19T09:37:57.482Z,5.35
2022-08-19T09:40:35.399Z,5.38
2022-08-19T09:43:11.463Z,5.60
2022-08-19T09:45:41.994Z,5.32
2022-08-19T09:48:11.697Z,5.30
2022-08-19T09:50:51.686Z,5.88
2022-08-19T09:53:25.622Z,5.07
2022-08-19T09:55:56.442Z,5.55
2022-08-19T09:58:28.643Z,5.25
2022-08-19T10:00:59.507Z,5.40
2022-08-19T10:03:29.918Z,6.25
2022-08-19T10:06:01.599Z,6.18
2022-08-19T10:08:37.756Z,5.28
2022-08-19T10:11:28.747Z,6.00
2022-08-19T10:13:54.880Z,7.30
2022-08-19T10:16:26.225Z,5.47
2022-08-19T10:19:00.416Z,5.35
2022-08-19T10:21:35.504Z,5.53
2022-08-19T10:24:07.161Z,5.72
2022-08-19T10:26:47.511Z,5.18
2022-08-19T10:29:32.322Z,7.53
2022-08-19T10:32:09.956Z,5.82
2022-08-19T10:34:48.151Z,4.82
2022-08-19T10:37:28.957Z,5.82
2022-08-19T10:40:00.001Z,6.00
2022-08-19T10:42:27.822Z,6.07
2022-08-19T10:44:55.794Z,5.65
2022-08-19T10:47:26.339Z,6.45
2022-08-19T10:50:18.811Z,5.82
2022-08-19T10:52:50.717Z,5.10
2022-08-19T10:55:46.647Z,5.90
2022-08-19T10:58:27.135Z,5.47
2022-08-19T11:00:58.263Z,5.28
2022-08-19T11:03:30.503Z,5.55
2022-08-19T11:06:03.931Z,5.05
2022-08-19T11:08:32.201Z,5.65
2022-08-19T11:11:04.267Z,5.72
2022-08-19T11:13:37.074Z,6.03
2022-08-19T11:16:19.649Z,5.97
2022-08-19T11:18:52.537Z,4.95
2022-08-19T11:21:26.998Z,4.95
2022-08-19T11:23:59.716Z,5.05
2022-08-19T11:26:31.967Z,6.43
2022-08-19T11:29:01.543Z,5.50
2022-08-19T11:31:36.443Z,5.47
2022-08-19T11:34:08.343Z,5.50
2022-08-19T11:36:40.628Z,5.45
2022-08-19T11:39:10.886Z,5.82
2022-08-19T11:41:39.170Z,5.53
2022-08-19T11:44:08.884Z,5.57
2022-08-19T11:46:39.013Z,10.07
2022-08-19T11:49:13.768Z,4.95
2022-08-19T11:51:44.196Z,4.68
2022-08-19T11:54:15.894Z,7.05
2022-08-19T11:56:45.329Z,5.00
2022-08-19T11:59:14.967Z,5.20
2022-08-19T12:01:43.820Z,5.82
2022-08-19T12:04:12.230Z,5.95
2022-08-19T12:06:42.699Z,5.70
2022-08-19T12:09:12.127Z,5.75
2022-08-19T12:11:42.784Z,5.70
2022-08-19T12:14:14.736Z,5.80
2022-08-19T12:16:49.140Z,5.75
2022-08-19T12:19:22.513Z,5.47
2022-08-19T12:21:51.798Z,5.18
2022-08-19T12:24:24.313Z,5.40
2022-08-19T12:26:54.015Z,5.35
2022-08-19T12:29:24.372Z,6.18
2022-08-19T12:31:52.657Z,5.28
2022-08-19T12:34:21.328Z,5.57
2022-08-19T12:36:50.478Z,5.63
2022-08-19T12:39:18.893Z,5.30
2022-08-19T12:41:54.306Z,5.80
2022-08-19T12:44:29.607Z,6.03
2022-08-19T12:47:00.958Z,6.95
2022-08-19T12:49:53.407Z,5.70
2022-08-19T12:52:23.542Z,5.53
2022-08-19T12:54:55.603Z,6.25
2022-08-19T12:57:32.673Z,5.70
2022-08-19T13:00:09.022Z,5.80
2022-08-19T13:02:39.341Z,5.88
2022-08-19T13:05:12.331Z,5.93
2022-08-19T13:07:42.137Z,5.57
2022-08-19T13:10:15.390Z,6.00
2022-08-19T13:12:46.755Z,5.90
2022-08-19T13:15:23.790Z,7.45
2022-08-19T13:17:54.899Z,5.15
2022-08-19T13:20:24.135Z,7.38
2022-08-19T13:22:52.565Z,5.72
2022-08-19T13:25:21.007Z,5.72
2022-08-19T13:27:51.901Z,5.63
2022-08-19T13:30:40.432Z,5.55
2022-08-19T13:33:12.524Z,6.03
2022-08-19T13:35:58.953Z,5.78
2022-08-19T13:38:27.724Z,5.90
2022-08-19T13:40:56.812Z,5.87
2022-08-19T13:43:28.914Z,5.22
2022-08-19T13:45:57.730Z,5.60
2022-08-19T13:48:28.004Z,6.22
2022-08-19T13:50:56.716Z,6.25
2022-08-19T13:53:24.643Z,6.07
2022-08-19T13:55:54.561Z,5.88
2022-08-19T13:58:23.282Z,6.07
2022-08-19T14:00:51.427Z,6.45
2022-08-19T14:03:19.347Z,7.22
2022-08-19T14:05:47.762Z,5.50
2022-08-19T14:08:19.382Z,6.93
2022-08-19T14:13:22.886Z,6.68
2022-08-19T14:15:52.034Z,6.18
2022-08-19T14:18:20.112Z,5.28
2022-08-19T14:20:47.857Z,5.72
2022-08-19T14:23:15.672Z,5.90
2022-08-19T14:25:44.860Z,5.90
2022-08-19T14:28:12.576Z,6.53
2022-08-19T14:30:40.528Z,5.65
2022-08-19T14:33:13.462Z,5.35
2022-08-19T14:35:54.356Z,5.68
2022-08-19T14:38:32.721Z,5.75
2022-08-19T14:41:21.256Z,5.93
2022-08-19T14:43:55.890Z,6.20
2022-08-19T14:46:35.434Z,6.80
2022-08-19T14:49:09.753Z,5.80
2022-08-19T14:51:38.002Z,5.93
2022-08-19T14:54:06.070Z,5.40
2022-08-19T14:56:34.726Z,5.93
2022-08-19T14:59:02.831Z,6.57
2022-08-19T15:01:30.812Z,6.43
2022-08-19T15:03:59.073Z,6.40
2022-08-19T15:06:28.202Z,6.30
2022-08-19T15:09:00.655Z,6.05
2022-08-19T15:11:33.946Z,6.53
2022-08-19T15:14:02.571Z,6.28
2022-08-19T15:16:30.408Z,6.38
2022-08-19T15:19:01.002Z,6.03
2022-08-19T15:21:31.431Z,5.90
2022-08-19T15:24:01.933Z,6.13
2022-08-19T15:26:33.281Z,5.97
2022-08-19T15:29:04.280Z,5.50
2022-08-19T15:31:38.151Z,5.80
2022-08-19T15:34:07.751Z,6.18
2022-08-19T15:36:37.582Z,7.43
2022-08-19T15:39:22.481Z,5.75
2022-08-19T15:41:51.181Z,5.80
2022-08-19T15:44:22.682Z,6.10
2022-08-19T15:46:51.526Z,6.03
2022-08-19T15:49:22.038Z,6.85
2022-08-19T15:54:22.055Z,6.25
2022-08-19T15:57:11.058Z,6.28
2022-08-19T16:00:00.762Z,6.85
2022-08-19T16:02:53.753Z,7.10
2022-08-19T16:05:50.736Z,7.18
2022-08-19T16:08:19.327Z,7.38
2022-08-19T16:10:47.063Z,6.85
2022-08-19T16:13:15.294Z,6.97
2022-08-19T16:15:44.767Z,7.30
2022-08-19T16:18:12.768Z,7.07
2022-08-19T16:20:41.184Z,7.00
2022-08-19T16:23:09.364Z,6.77
2022-08-19T16:25:37.523Z,6.70
2022-08-19T16:28:07.994Z,6.80
2022-08-19T16:31:01.763Z,6.50
2022-08-19T16:33:30.373Z,6.85
2022-08-19T16:36:07.031Z,7.18
2022-08-19T16:38:37.505Z,6.70
2022-08-19T16:41:06.713Z,11.73
2022-08-19T16:43:41.781Z,7.47
2022-08-19T16:46:11.034Z,7.53
2022-08-19T16:48:43.199Z,7.50
2022-08-19T16:51:13.401Z,7.78
2022-08-19T16:53:44.566Z,7.47
2022-08-19T16:56:13.249Z,7.07
2022-08-19T16:58:42.789Z,7.28
2022-08-19T17:01:11.531Z,7.10
2022-08-19T17:03:41.380Z,7.30
2022-08-19T17:06:21.163Z,7.07
2022-08-19T17:08:52.192Z,7.57
2022-08-19T17:11:21.363Z,7.18
2022-08-19T17:13:50.999Z,6.95
2022-08-19T17:16:27.828Z,7.15
2022-08-19T17:19:02.244Z,7.40
2022-08-19T17:21:34.282Z,7.40
2022-08-19T17:24:07.489Z,6.75
2022-08-19T17:26:37.978Z,8.75
2022-08-19T17:29:06.593Z,7.13
2022-08-19T17:31:35.200Z,7.70
2022-08-19T17:34:04.656Z,7.13
2022-08-19T17:36:34.281Z,7.82
2022-08-19T17:39:05.472Z,7.90
2022-08-19T17:41:34.477Z,7.03
2022-08-19T17:44:04.591Z,6.88
2022-08-19T17:46:33.157Z,7.80
2022-08-19T17:49:02.086Z,7.90
2022-08-19T17:51:35.774Z,8.38
2022-08-19T17:54:06.781Z,9.15
2022-08-19T17:56:35.032Z,7.07
2022-08-19T17:59:03.182Z,7.03
2022-08-19T18:01:48.396Z,7.00
2022-08-19T18:04:26.688Z,7.40
2022-08-19T18:06:58.520Z,7.13
2022-08-19T18:09:41.381Z,7.20
2022-08-19T18:12:18.134Z,7.90
2022-08-19T18:14:47.550Z,7.50
2022-08-19T18:17:19.417Z,7.50
2022-08-19T18:19:48.476Z,6.90
2022-08-19T18:22:30.708Z,7.38
2022-08-19T18:24:59.362Z,7.10
2022-08-19T18:27:29.033Z,7.13
2022-08-19T18:30:00.118Z,8.13
2022-08-19T18:32:34.812Z,8.15
2022-08-19T18:35:16.380Z,7.25
2022-08-19T18:37:46.265Z,7.25
2022-08-19T18:40:39.276Z,7.18
2022-08-19T18:43:27.762Z,7.63
2022-08-19T18:46:15.400Z,8.02
2022-08-19T18:49:04.827Z,7.78
2022-08-19T18:51:34.570Z,8.00
2022-08-19T18:54:04.036Z,7.72
2022-08-19T18:56:33.537Z,8.63
2022-08-19T18:59:03.238Z,9.10
2022-08-19T19:01:37.144Z,8.80
2022-08-19T19:04:14.180Z,9.20
2022-08-19T19:06:44.780Z,8.82
2022-08-19T19:09:25.189Z,8.63
2022-08-19T19:11:58.780Z,9.27
2022-08-19T19:14:50.543Z,9.10
2022-08-19T19:17:25.863Z,8.63
2022-08-19T19:19:54.354Z,8.20
2022-08-19T19:22:24.955Z,7.55
2022-08-19T19:24:56.715Z,7.45
2022-08-19T19:27:25.539Z,8.00
2022-08-19T19:29:53.704Z,8.45
2022-08-19T19:32:28.683Z,8.05
2022-08-19T19:34:56.971Z,8.85
2022-08-19T19:37:24.868Z,8.65
2022-08-19T19:39:53.359Z,8.80
2022-08-19T19:42:23.922Z,8.70
2022-08-19T19:44:56.588Z,9.27
2022-08-19T19:47:26.151Z,8.45
2022-08-19T19:52:46.824Z,8.70
2022-08-19T19:55:18.661Z,8.80
2022-08-19T19:57:50.575Z,8.63
2022-08-19T20:00:20.179Z,7.95
2022-08-19T20:02:50.988Z,8.95
2022-08-19T20:05:21.617Z,8.93
2022-08-19T20:08:10.955Z,9.57
2022-08-19T20:10:43.543Z,8.70
2022-08-19T20:13:15.690Z,10.13
2022-08-19T20:15:44.600Z,9.27
2022-08-19T20:18:16.603Z,9.18
2022-08-19T20:20:50.313Z,8.38
2022-08-19T20:23:21.871Z,8.63
2022-08-19T20:25:51.603Z,8.65
2022-08-19T20:28:23.012Z,8.27
2022-08-19T20:30:51.902Z,8.60
2022-08-19T20:33:20.925Z,8.55
2022-08-19T20:35:49.393Z,8.17
2022-08-19T20:38:17.948Z,8.45
2022-08-19T20:40:46.634Z,8.82
2022-08-19T20:43:15.363Z,8.48
2022-08-19T20:45:44.285Z,8.43
2022-08-19T20:48:13.914Z,8.37
2022-08-19T20:50:42.977Z,8.68
2022-08-19T20:53:19.678Z,9.20
2022-08-19T20:55:49.966Z,9.07
2022-08-19T20:58:22.500Z,9.80
2022-08-19T21:00:55.143Z,9.88
2022-08-19T21:03:28.283Z,9.82
2022-08-19T21:05:58.090Z,9.98
2022-08-19T21:10:59.314Z,10.32
2022-08-19T21:13:27.784Z,10.38
2022-08-19T21:15:56.376Z,10.52
2022-08-19T21:18:27.116Z,9.63
2022-08-19T21:20:56.602Z,9.20
2022-08-19T21:23:29.446Z,9.85
2022-08-19T21:26:00.849Z,10.05
2022-08-19T21:28:35.185Z,8.90
2022-08-19T21:31:11.897Z,9.18
2022-08-19T21:33:40.920Z,9.35
2022-08-19T21:36:09.669Z,9.55
2022-08-19T21:38:38.428Z,8.88
2022-08-19T21:41:07.964Z,8.97
2022-08-19T21:43:37.601Z,9.18
2022-08-19T21:46:06.327Z,9.88
2022-08-19T21:48:35.172Z,10.13
2022-08-19T21:52:49.598Z,10.10
2022-08-19T21:55:18.316Z,9.65
2022-08-19T21:57:47.218Z,9.88
2022-08-19T22:00:22.687Z,9.23
2022-08-19T22:02:52.322Z,10.10
2022-08-19T22:05:26.404Z,10.00
2022-08-19T22:07:58.196Z,10.10
2022-08-19T22:10:32.463Z,10.07
2022-08-19T22:13:01.603Z,9.82
2022-08-19T22:15:30.285Z,9.50
2022-08-19T22:17:59.589Z,9.83
2022-08-19T22:23:03.537Z,9.10
2022-08-19T22:25:45.457Z,8.57
2022-08-19T22:28:18.778Z,8.38
2022-08-19T22:30:56.270Z,8.35
2022-08-19T22:33:25.948Z,7.90
2022-08-19T22:35:54.319Z,8.13
2022-08-19T22:38:23.864Z,7.47
2022-08-19T22:40:54.073Z,8.05
2022-08-19T22:43:26.857Z,7.50
2022-08-19T22:45:57.136Z,7.28
2022-08-19T22:48:30.587Z,7.63
2022-08-19T22:51:19.083Z,7.50
2022-08-19T22:53:47.747Z,7.53
2022-08-19T22:56:19.125Z,7.15
2022-08-19T22:58:50.233Z,7.50
2022-08-19T23:01:30.290Z,7.63
2022-08-19T23:04:00.382Z,7.35
2022-08-19T23:06:35.665Z,7.78
2022-08-19T23:09:08.154Z,7.63
2022-08-19T23:11:41.931Z,7.90
2022-08-19T23:14:12.814Z,8.75
2022-08-19T23:16:42.404Z,8.77
2022-08-19T23:19:11.506Z,6.90
2022-08-19T23:21:42.441Z,7.70
2022-08-19T23:24:11.531Z,8.07
2022-08-19T23:26:59.936Z,8.68
2022-08-19T23:29:50.238Z,8.10
2022-08-19T23:32:21.269Z,7.18
2022-08-19T23:34:50.147Z,7.43
2022-08-19T23:37:18.125Z,7.38
2022-08-19T23:39:45.793Z,7.95
2022-08-19T23:42:14.087Z,8.00
2022-08-19T23:44:52.195Z,8.45
2022-08-19T23:47:21.962Z,7.70
2022-08-19T23:49:50.828Z,8.02
2022-08-19T23:52:19.110Z,8.85
2022-08-19T23:54:47.202Z,9.52
2022-08-19T23:57:16.739Z,8.23
2022-08-19T23:59:47.922Z,11.48
